createdAt,value
2019-02-04T00:00:25.681Z,95.88
2019-02-04T00:00:51.797Z,95.69
2019-02-04T00:01:17.913Z,95.69
2019-02-04T00:01:44.383Z,95.5
2019-02-04T00:02:10.477Z,95.69
2019-02-04T00:02:36.861Z,95.5
2019-02-04T00:03:02.991Z,95.6
2019-02-04T00:03:29.089Z,95.69
2019-02-04T00:03:55.609Z,96.26
2019-02-04T00:04:21.715Z,96.26
2019-02-04T00:04:47.843Z,95.98
2019-02-04T00:05:14.086Z,95.88
2019-02-04T00:05:40.195Z,95.98
2019-02-04T00:06:06.752Z,95.98
2019-02-04T00:06:32.867Z,96.07
2019-02-04T00:06:58.998Z,96.45
2019-02-04T00:07:26.149Z,95.88
2019-02-04T00:07:52.251Z,96.55
2019-02-04T00:08:18.518Z,96.55
2019-02-04T00:08:44.798Z,96.55
2019-02-04T00:09:10.886Z,96.17
2019-02-04T00:09:37.376Z,96.26
2019-02-04T00:10:03.507Z,96.92
2019-02-04T00:10:29.613Z,95.98
2019-02-04T00:10:56.086Z,96.45
2019-02-04T00:11:22.247Z,96.83
2019-02-04T00:11:48.771Z,96.73
2019-02-04T00:12:14.893Z,96.64
2019-02-04T00:12:40.991Z,97.4
2019-02-04T00:13:07.330Z,97.21
2019-02-04T00:13:33.505Z,97.4
2019-02-04T00:13:59.615Z,97.4
2019-02-04T00:14:25.903Z,97.21
2019-02-04T00:14:52.010Z,97.49
2019-02-04T00:15:18.290Z,97.21
2019-02-04T00:15:44.418Z,97.4
2019-02-04T00:16:10.571Z,97.3
2019-02-04T00:16:40.734Z,97.3
2019-02-04T00:17:04.125Z,97.59
2019-02-04T00:17:30.413Z,97.4
2019-02-04T00:17:56.526Z,97.11
2019-02-04T00:18:22.619Z,97.3
2019-02-04T00:18:48.961Z,97.4
2019-02-04T00:19:15.087Z,97.4
2019-02-04T00:19:41.187Z,97.25
2019-02-04T00:20:07.624Z,97.82
2019-02-04T00:20:33.829Z,97.68
2019-02-04T00:21:00.259Z,97.49
2019-02-04T00:21:26.436Z,97.4
2019-02-04T00:21:52.537Z,97.59
2019-02-04T00:22:18.890Z,97.87
2019-02-04T00:22:45.013Z,98.01
2019-02-04T00:23:11.534Z,98.16
2019-02-04T00:23:37.795Z,97.92
2019-02-04T00:24:03.948Z,98.01
2019-02-04T00:24:30.438Z,97.97
2019-02-04T00:24:56.605Z,98.16
2019-02-04T00:25:22.713Z,98.01
2019-02-04T00:25:49.362Z,97.73
2019-02-04T00:26:15.507Z,97.87
2019-02-04T00:26:51.232Z,97.97
2019-02-04T00:27:08.955Z,98.11
2019-02-04T00:27:35.049Z,98.16
2019-02-04T00:28:01.719Z,98.16
2019-02-04T00:28:27.824Z,97.87
2019-02-04T00:28:54.088Z,97.87
2019-02-04T00:29:20.349Z,97.87
2019-02-04T00:29:46.479Z,98.16
2019-02-04T00:30:12.825Z,98.2
2019-02-04T00:30:38.953Z,98.01
2019-02-04T00:31:05.349Z,98.2
2019-02-04T00:31:31.496Z,98.06
2019-02-04T00:31:57.600Z,98.01
2019-02-04T00:32:23.881Z,98.39
2019-02-04T00:32:49.983Z,98.11
2019-02-04T00:33:16.093Z,98.49
2019-02-04T00:33:42.461Z,98.86
2019-02-04T00:34:08.596Z,98.96
2019-02-04T00:34:34.701Z,98.96
2019-02-04T00:35:01.124Z,98.58
2019-02-04T00:35:27.233Z,98.77
2019-02-04T00:35:53.613Z,98.3
2019-02-04T00:36:19.715Z,98.49
2019-02-04T00:36:45.818Z,98.58
2019-02-04T00:37:12.168Z,99.05
2019-02-04T00:37:38.298Z,98.58
2019-02-04T00:38:04.663Z,98.96
2019-02-04T00:38:30.906Z,99.05
2019-02-04T00:38:57.019Z,99.05
2019-02-04T00:39:24.013Z,98.86
2019-02-04T00:39:50.111Z,98.96
2019-02-04T00:40:16.246Z,98.96
2019-02-04T00:40:42.931Z,99.15
2019-02-04T00:41:09.035Z,99.24
2019-02-04T00:41:35.236Z,99.24
2019-02-04T00:42:01.369Z,99.33
2019-02-04T00:42:27.475Z,99.24
2019-02-04T00:42:53.917Z,99.52
2019-02-04T00:43:19.974Z,99.05
2019-02-04T00:43:46.078Z,98.86
2019-02-04T00:44:12.377Z,99.05
2019-02-04T00:44:38.486Z,99.52
2019-02-04T00:45:04.852Z,99.52
2019-02-04T00:45:30.949Z,99.52
2019-02-04T00:45:57.053Z,99.33
2019-02-04T00:46:23.472Z,99.24
2019-02-04T00:46:52.115Z,99.52
2019-02-04T00:47:16.931Z,99.52
2019-02-04T00:47:43.039Z,98.96
2019-02-04T00:48:09.137Z,99.15
2019-02-04T00:48:35.488Z,99.52
2019-02-04T00:49:01.622Z,99.24
2019-02-04T00:49:27.721Z,99.52
2019-02-04T00:49:54.185Z,99.15
2019-02-04T00:50:20.292Z,99.05
2019-02-04T00:50:46.643Z,99.15
2019-02-04T00:51:12.743Z,99.05
2019-02-04T00:51:38.842Z,98.86
2019-02-04T00:52:05.213Z,98.77
2019-02-04T00:52:31.310Z,99.15
2019-02-04T00:52:57.417Z,99.24
2019-02-04T00:53:23.766Z,98.96
2019-02-04T00:53:49.894Z,99.05
2019-02-04T00:54:16.261Z,99.24
2019-02-04T00:54:42.374Z,99.05
2019-02-04T00:55:08.503Z,98.68
2019-02-04T00:55:34.896Z,99.15
2019-02-04T00:56:01.001Z,99.15
2019-02-04T00:56:27.246Z,98.49
2019-02-04T00:56:53.387Z,98.58
2019-02-04T00:57:19.596Z,99.15
2019-02-04T00:57:45.920Z,99.24
2019-02-04T00:58:12.094Z,98.86
2019-02-04T00:58:38.199Z,99.15
2019-02-04T00:59:04.684Z,99.24
2019-02-04T00:59:30.783Z,99.24
2019-02-04T00:59:57.436Z,99.15
2019-02-04T01:00:23.539Z,99.33
2019-02-04T01:00:49.635Z,99.05
2019-02-04T01:01:16.252Z,99.15
2019-02-04T01:01:42.359Z,99.43
2019-02-04T01:02:08.719Z,99.43
2019-02-04T01:02:35.027Z,99.52
2019-02-04T01:03:01.142Z,99.05
2019-02-04T01:03:27.258Z,99.05
2019-02-04T01:03:53.366Z,99.24
2019-02-04T01:04:19.473Z,99.05
2019-02-04T01:04:46.057Z,99.71
2019-02-04T01:05:12.166Z,99.24
2019-02-04T01:05:38.570Z,99.05
2019-02-04T01:06:04.672Z,99.52
2019-02-04T01:06:30.778Z,99.24
2019-02-04T01:06:57.115Z,99.24
2019-02-04T01:07:23.258Z,99.15
2019-02-04T01:07:49.423Z,99.24
2019-02-04T01:08:15.863Z,99.15
2019-02-04T01:08:41.967Z,99.43
2019-02-04T01:09:08.328Z,99.15
2019-02-04T01:09:35.459Z,98.96
2019-02-04T01:10:01.595Z,98.86
2019-02-04T01:10:27.908Z,99.15
2019-02-04T01:10:54.065Z,99.15
2019-02-04T01:11:20.452Z,98.68
2019-02-04T01:11:46.574Z,98.58
2019-02-04T01:12:12.683Z,98.68
2019-02-04T01:12:39.041Z,98.86
2019-02-04T01:13:05.176Z,98.86
2019-02-04T01:13:31.275Z,98.86
2019-02-04T01:13:57.824Z,98.86
2019-02-04T01:14:23.927Z,98.49
2019-02-04T01:14:50.342Z,98.77
2019-02-04T01:15:16.442Z,98.58
2019-02-04T01:15:42.570Z,98.58
2019-02-04T01:16:08.858Z,98.58
2019-02-04T01:16:34.963Z,98.77
2019-02-04T01:17:03.352Z,98.58
2019-02-04T01:17:28.203Z,98.3
2019-02-04T01:17:54.310Z,98.49
2019-02-04T01:18:20.467Z,99.05
2019-02-04T01:18:46.573Z,98.96
2019-02-04T01:19:12.698Z,98.77
2019-02-04T01:19:38.971Z,99.24
2019-02-04T01:20:05.079Z,99.15
2019-02-04T01:20:31.465Z,99.15
2019-02-04T01:20:57.591Z,98.86
2019-02-04T01:21:23.694Z,99.05
2019-02-04T01:21:49.979Z,98.77
2019-02-04T01:22:16.095Z,98.86
2019-02-04T01:22:42.249Z,98.96
2019-02-04T01:23:08.501Z,99.15
2019-02-04T01:23:34.605Z,98.86
2019-02-04T01:24:00.732Z,99.05
2019-02-04T01:24:26.881Z,98.86
2019-02-04T01:24:53.527Z,98.86
2019-02-04T01:25:19.763Z,98.86
2019-02-04T01:25:45.868Z,99.15
2019-02-04T01:26:12.254Z,99.24
2019-02-04T01:26:38.380Z,99.33
2019-02-04T01:27:04.485Z,99.05
2019-02-04T01:27:30.876Z,99.24
2019-02-04T01:27:56.973Z,99.52
2019-02-04T01:28:23.107Z,99.15
2019-02-04T01:28:49.527Z,99.62
2019-02-04T01:29:15.638Z,99.33
2019-02-04T01:29:42.097Z,99.52
2019-02-04T01:30:08.201Z,99.43
2019-02-04T01:30:34.306Z,99.15
2019-02-04T01:31:00.854Z,99.33
2019-02-04T01:31:26.954Z,98.96
2019-02-04T01:31:53.290Z,99.43
2019-02-04T01:32:19.609Z,99.24
2019-02-04T01:32:45.711Z,99.62
2019-02-04T01:33:12.440Z,99.05
2019-02-04T01:33:38.540Z,99.62
2019-02-04T01:34:04.654Z,99.15
2019-02-04T01:34:30.922Z,99.71
2019-02-04T01:34:58.015Z,99.99
2019-02-04T01:35:24.755Z,99.71
2019-02-04T01:35:50.945Z,99.71
2019-02-04T01:36:17.047Z,99.24
2019-02-04T01:36:43.654Z,99.99
2019-02-04T01:37:09.806Z,99.62
2019-02-04T01:37:36.138Z,99.99
2019-02-04T01:38:02.427Z,99.99
2019-02-04T01:38:28.562Z,99.99
2019-02-04T01:38:54.795Z,99.99
2019-02-04T01:39:20.903Z,99.99
2019-02-04T01:39:47.006Z,99.99
2019-02-04T01:40:13.361Z,99.99
2019-02-04T01:40:39.483Z,99.99
2019-02-04T01:41:05.871Z,99.99
2019-02-04T01:41:33.232Z,99.81
2019-02-04T01:41:58.133Z,99.9
2019-02-04T01:42:24.467Z,99.9
2019-02-04T01:42:50.575Z,99.99
2019-02-04T01:43:16.673Z,99.99
2019-02-04T01:43:43.004Z,99.99
2019-02-04T01:44:09.103Z,99.81
2019-02-04T01:44:35.507Z,99.99
2019-02-04T01:45:01.611Z,99.99
2019-02-04T01:45:27.738Z,99.99
2019-02-04T01:45:54.083Z,99.99
2019-02-04T01:46:20.177Z,99.99
2019-02-04T01:46:46.560Z,99.99
2019-02-04T01:47:14.524Z,99.99
2019-02-04T01:47:39.934Z,99.99
2019-02-04T01:48:06.359Z,99.99
2019-02-04T01:48:32.468Z,99.81
2019-02-04T01:48:58.574Z,99.81
2019-02-04T01:49:25.037Z,99.99
2019-02-04T01:49:51.143Z,99.9
2019-02-04T01:50:17.631Z,99.99
2019-02-04T01:50:43.735Z,99.9
2019-02-04T01:51:09.832Z,99.99
2019-02-04T01:51:36.113Z,99.99
2019-02-04T01:52:02.246Z,99.99
2019-02-04T01:52:28.349Z,99.99
2019-02-04T01:52:54.604Z,99.99
2019-02-04T01:53:20.717Z,99.99
2019-02-04T01:53:46.918Z,99.99
2019-02-04T01:54:13.022Z,99.99
2019-02-04T01:54:39.118Z,99.99
2019-02-04T01:55:05.502Z,99.99
2019-02-04T01:55:31.607Z,99.99
2019-02-04T01:55:58.001Z,99.99
2019-02-04T01:56:24.103Z,99.99
2019-02-04T01:56:50.233Z,99.99
2019-02-04T01:57:16.557Z,99.99
2019-02-04T01:57:42.664Z,99.99
2019-02-04T01:58:08.761Z,99.99
2019-02-04T01:58:35.149Z,99.99
2019-02-04T01:59:01.252Z,99.99
2019-02-04T01:59:27.688Z,99.99
2019-02-04T01:59:53.795Z,99.99
2019-02-04T02:00:19.890Z,99.99
2019-02-04T02:00:46.504Z,99.99
2019-02-04T02:01:12.670Z,99.99
2019-02-04T02:01:38.984Z,99.99
2019-02-04T02:02:05.160Z,99.99
2019-02-04T02:02:31.272Z,99.99
2019-02-04T02:02:57.992Z,99.99
2019-02-04T02:03:24.094Z,99.99
2019-02-04T02:03:50.199Z,99.99
2019-02-04T02:04:16.493Z,99.99
2019-02-04T02:04:42.598Z,99.99
2019-02-04T02:05:08.821Z,99.99
2019-02-04T02:05:34.925Z,99.99
2019-02-04T02:06:01.023Z,99.99
2019-02-04T02:06:27.312Z,99.99
2019-02-04T02:06:53.575Z,99.99
2019-02-04T02:07:19.685Z,99.99
2019-02-04T02:07:45.813Z,99.99
2019-02-04T02:08:11.966Z,99.99
2019-02-04T02:08:38.231Z,99.99
2019-02-04T02:09:04.328Z,99.99
2019-02-04T02:09:30.459Z,99.99
2019-02-04T02:09:56.935Z,99.99
2019-02-04T02:10:23.038Z,99.99
2019-02-04T02:10:49.315Z,99.99
2019-02-04T02:11:15.499Z,99.99
2019-02-04T02:11:41.603Z,99.99
2019-02-04T02:12:07.999Z,99.99
2019-02-04T02:12:34.105Z,99.99
2019-02-04T02:13:00.202Z,99.99
2019-02-04T02:13:26.630Z,99.99
2019-02-04T02:13:52.729Z,99.99
2019-02-04T02:14:19.269Z,99.99
2019-02-04T02:14:45.373Z,99.99
2019-02-04T02:15:11.508Z,99.99
2019-02-04T02:15:37.812Z,99.99
2019-02-04T02:16:03.958Z,99.99
2019-02-04T02:16:30.255Z,99.99
2019-02-04T02:16:56.522Z,99.99
2019-02-04T02:17:26.186Z,99.99
2019-02-04T02:17:50.276Z,99.99
2019-02-04T02:18:16.376Z,99.99
2019-02-04T02:18:42.526Z,99.99
2019-02-04T02:19:08.975Z,99.99
2019-02-04T02:19:35.112Z,99.99
2019-02-04T02:20:01.655Z,99.99
2019-02-04T02:20:27.762Z,99.99
2019-02-04T02:20:53.864Z,99.99
2019-02-04T02:21:20.079Z,99.99
2019-02-04T02:21:46.182Z,99.99
2019-02-04T02:22:12.282Z,99.99
2019-02-04T02:22:38.583Z,99.99
2019-02-04T02:23:04.685Z,99.99
2019-02-04T02:23:31.041Z,99.99
2019-02-04T02:23:57.149Z,99.99
2019-02-04T02:24:23.248Z,99.99
2019-02-04T02:24:49.661Z,99.99
2019-02-04T02:25:15.842Z,99.99
2019-02-04T02:25:42.224Z,99.99
2019-02-04T02:26:08.332Z,99.99
2019-02-04T02:26:34.441Z,99.99
2019-02-04T02:27:00.769Z,99.99
2019-02-04T02:27:26.879Z,99.99
2019-02-04T02:27:52.984Z,99.99
2019-02-04T02:28:20.411Z,99.99
2019-02-04T02:28:46.522Z,99.99
2019-02-04T02:29:12.896Z,99.99
2019-02-04T02:29:39.002Z,99.99
2019-02-04T02:30:05.117Z,99.99
2019-02-04T02:30:31.383Z,99.99
2019-02-04T02:30:57.538Z,99.99
2019-02-04T02:31:23.660Z,99.99
2019-02-04T02:31:49.824Z,99.99
2019-02-04T02:32:15.960Z,99.99
2019-02-04T02:32:42.672Z,99.99
2019-02-04T02:33:08.830Z,99.99
2019-02-04T02:33:34.937Z,99.99
2019-02-04T02:34:01.202Z,99.99
2019-02-04T02:34:27.305Z,99.99
2019-02-04T02:34:53.703Z,99.99
2019-02-04T02:35:19.808Z,99.99
2019-02-04T02:35:45.914Z,99.99
2019-02-04T02:36:12.215Z,99.99
2019-02-04T02:36:38.316Z,99.99
2019-02-04T02:37:04.458Z,99.99
2019-02-04T02:37:30.822Z,99.99
2019-02-04T02:37:56.927Z,99.99
2019-02-04T02:38:23.368Z,99.99
2019-02-04T02:38:49.499Z,99.99
2019-02-04T02:39:15.604Z,99.99
2019-02-04T02:39:42.142Z,99.99
2019-02-04T02:40:08.247Z,99.99
2019-02-04T02:40:34.687Z,99.99
2019-02-04T02:41:01.049Z,99.99
2019-02-04T02:41:27.157Z,99.99
2019-02-04T02:41:53.589Z,99.99
2019-02-04T02:42:19.693Z,99.99
2019-02-04T02:42:45.818Z,99.99
2019-02-04T02:43:12.190Z,99.99
2019-02-04T02:43:38.344Z,99.99
2019-02-04T02:44:04.499Z,99.99
2019-02-04T02:44:30.632Z,99.99
2019-02-04T02:44:56.799Z,99.99
2019-02-04T02:45:23.238Z,99.99
2019-02-04T02:45:49.371Z,99.99
2019-02-04T02:46:15.473Z,99.99
2019-02-04T02:46:41.826Z,99.99
2019-02-04T02:47:07.933Z,99.99
2019-02-04T02:47:38.268Z,99.99
2019-02-04T02:48:01.378Z,99.99
2019-02-04T02:48:27.476Z,99.99
2019-02-04T02:48:53.879Z,99.99
2019-02-04T02:49:20.022Z,99.99
2019-02-04T02:49:46.268Z,99.99
2019-02-04T02:50:12.456Z,99.99
2019-02-04T02:50:38.552Z,99.99
2019-02-04T02:51:05.024Z,99.99
2019-02-04T02:51:31.123Z,99.99
2019-02-04T02:51:57.226Z,99.99
2019-02-04T02:52:23.456Z,99.99
2019-02-04T02:52:49.585Z,99.99
2019-02-04T02:53:15.980Z,99.99
2019-02-04T02:53:42.113Z,99.99
2019-02-04T02:54:08.213Z,99.99
2019-02-04T02:54:34.543Z,99.99
2019-02-04T02:55:00.650Z,99.99
2019-02-04T02:55:26.787Z,99.99
2019-02-04T02:55:53.129Z,99.99
2019-02-04T02:56:19.232Z,99.99
2019-02-04T02:56:45.550Z,99.99
2019-02-04T02:57:11.701Z,99.99
2019-02-04T02:57:37.785Z,99.99
2019-02-04T02:58:04.100Z,99.99
2019-02-04T02:58:30.262Z,99.99
2019-02-04T02:58:56.457Z,99.99
2019-02-04T02:59:22.558Z,99.99
2019-02-04T02:59:48.669Z,99.99
2019-02-04T03:00:15.229Z,99.99
2019-02-04T03:00:41.329Z,99.99
2019-02-04T03:01:07.466Z,99.99
2019-02-04T03:01:33.774Z,99.99
2019-02-04T03:01:59.903Z,99.99
2019-02-04T03:02:26.373Z,99.99
2019-02-04T03:02:52.541Z,99.99
2019-02-04T03:03:18.650Z,99.99
2019-02-04T03:03:44.869Z,99.99
2019-02-04T03:04:11.006Z,99.99
2019-02-04T03:04:37.132Z,99.99
2019-02-04T03:05:03.567Z,99.99
2019-02-04T03:05:29.667Z,99.99
2019-02-04T03:05:56.013Z,99.99
2019-02-04T03:06:22.150Z,99.99
2019-02-04T03:06:48.279Z,99.99
2019-02-04T03:07:14.708Z,99.99
2019-02-04T03:07:40.811Z,99.99
2019-02-04T03:08:06.943Z,99.99
2019-02-04T03:08:33.076Z,99.99
2019-02-04T03:08:59.177Z,99.99
2019-02-04T03:09:25.476Z,99.99
2019-02-04T03:09:51.578Z,99.99
2019-02-04T03:10:17.693Z,99.99
2019-02-04T03:10:44.077Z,99.99
2019-02-04T03:11:10.174Z,99.99
2019-02-04T03:11:36.389Z,99.99
2019-02-04T03:12:02.496Z,99.99
2019-02-04T03:12:28.602Z,99.99
2019-02-04T03:12:55.183Z,99.99
2019-02-04T03:13:21.280Z,99.99
2019-02-04T03:13:47.387Z,99.99
2019-02-04T03:14:13.730Z,99.99
2019-02-04T03:14:39.867Z,99.99
2019-02-04T03:15:06.123Z,99.99
2019-02-04T03:15:32.250Z,99.99
2019-02-04T03:15:58.360Z,99.99
2019-02-04T03:16:24.835Z,99.99
2019-02-04T03:16:50.935Z,99.99
2019-02-04T03:17:17.230Z,99.99
2019-02-04T03:17:51.713Z,99.99
2019-02-04T03:18:12.407Z,99.99
2019-02-04T03:18:38.647Z,99.99
2019-02-04T03:19:04.777Z,99.99
2019-02-04T03:19:30.906Z,99.99
2019-02-04T03:19:57.209Z,99.99
2019-02-04T03:20:23.387Z,99.99
2019-02-04T03:20:49.608Z,99.99
2019-02-04T03:21:15.719Z,99.99
2019-02-04T03:21:41.824Z,99.99
2019-02-04T03:22:08.186Z,99.99
2019-02-04T03:22:34.300Z,99.99
2019-02-04T03:23:00.480Z,99.99
2019-02-04T03:23:26.609Z,99.99
2019-02-04T03:23:52.716Z,99.99
2019-02-04T03:24:19.838Z,99.99
2019-02-04T03:24:45.938Z,99.99
2019-02-04T03:25:12.095Z,99.99
2019-02-04T03:25:38.477Z,99.99
2019-02-04T03:26:04.584Z,99.99
2019-02-04T03:26:30.911Z,99.99
2019-02-04T03:26:57.042Z,99.99
2019-02-04T03:27:23.215Z,99.99
2019-02-04T03:27:49.710Z,99.99
2019-02-04T03:28:15.812Z,99.99
2019-02-04T03:28:42.267Z,99.99
2019-02-04T03:29:08.393Z,99.99
2019-02-04T03:29:34.495Z,99.99
2019-02-04T03:30:01.025Z,99.99
2019-02-04T03:30:27.162Z,99.99
2019-02-04T03:30:53.418Z,99.99
2019-02-04T03:31:19.771Z,99.99
2019-02-04T03:31:46.920Z,99.99
2019-02-04T03:32:13.387Z,99.99
2019-02-04T03:32:39.413Z,99.99
2019-02-04T03:33:05.527Z,99.99
2019-02-04T03:33:31.670Z,99.99
2019-02-04T03:33:57.779Z,99.99
2019-02-04T03:34:23.908Z,99.99
2019-02-04T03:34:50.062Z,99.99
2019-02-04T03:35:16.221Z,99.99
2019-02-04T03:35:42.348Z,99.99
2019-02-04T03:36:08.452Z,99.99
2019-02-04T03:36:34.548Z,99.99
2019-02-04T03:37:00.875Z,99.99
2019-02-04T03:37:26.991Z,99.99
2019-02-04T03:37:53.270Z,99.99
2019-02-04T03:38:19.371Z,99.99
2019-02-04T03:38:45.513Z,99.99
2019-02-04T03:39:11.825Z,99.99
2019-02-04T03:39:37.932Z,99.99
2019-02-04T03:40:04.033Z,99.99
2019-02-04T03:40:30.651Z,99.99
2019-02-04T03:40:56.755Z,99.99
2019-02-04T03:41:23.162Z,99.99
2019-02-04T03:41:49.309Z,99.99
2019-02-04T03:42:15.420Z,99.99
2019-02-04T03:42:42.053Z,99.99
2019-02-04T03:43:08.159Z,99.99
2019-02-04T03:43:34.290Z,99.99
2019-02-04T03:44:00.637Z,99.99
2019-02-04T03:44:26.744Z,99.99
2019-02-04T03:44:53.016Z,99.99
2019-02-04T03:45:19.121Z,99.99
2019-02-04T03:45:45.238Z,99.99
2019-02-04T03:46:11.362Z,99.99
2019-02-04T03:46:37.493Z,99.99
2019-02-04T03:47:03.649Z,99.99
2019-02-04T03:47:29.789Z,99.99
2019-02-04T03:48:04.746Z,99.99
2019-02-04T03:48:25.274Z,99.99
2019-02-04T03:48:51.375Z,99.99
2019-02-04T03:49:17.503Z,99.99
2019-02-04T03:49:43.833Z,99.99
2019-02-04T03:50:09.938Z,99.99
2019-02-04T03:50:36.252Z,99.99
2019-02-04T03:51:02.441Z,99.99
2019-02-04T03:51:28.536Z,99.99
2019-02-04T03:51:54.856Z,99.99
2019-02-04T03:52:20.955Z,99.99
2019-02-04T03:52:47.206Z,99.99
2019-02-04T03:53:13.304Z,99.99
2019-02-04T03:53:39.410Z,99.99
2019-02-04T03:54:05.634Z,99.99
2019-02-04T03:54:31.765Z,99.99
2019-02-04T03:54:57.949Z,99.99
2019-02-04T03:55:24.226Z,99.99
2019-02-04T03:55:50.384Z,99.99
2019-02-04T03:56:16.716Z,99.99
2019-02-04T03:56:42.820Z,99.99
2019-02-04T03:57:08.926Z,99.99
2019-02-04T03:57:35.245Z,99.99
2019-02-04T03:58:01.346Z,99.99
2019-02-04T03:58:27.753Z,99.99
2019-02-04T03:58:53.856Z,99.99
2019-02-04T03:59:19.954Z,99.99
2019-02-04T03:59:46.359Z,99.99
2019-02-04T04:00:12.814Z,99.99
2019-02-04T04:00:38.909Z,99.99
2019-02-04T04:01:05.320Z,99.99
2019-02-04T04:01:31.429Z,99.99
2019-02-04T04:01:57.706Z,99.99
2019-02-04T04:02:23.816Z,99.99
2019-02-04T04:02:49.925Z,99.99
2019-02-04T04:03:16.499Z,99.99
2019-02-04T04:03:42.603Z,99.99
2019-02-04T04:04:09.007Z,99.99
2019-02-04T04:04:35.219Z,99.99
2019-02-04T04:05:01.324Z,99.99
2019-02-04T04:05:27.776Z,99.99
2019-02-04T04:05:53.883Z,99.99
2019-02-04T04:06:19.991Z,99.99
2019-02-04T04:06:46.281Z,99.99
2019-02-04T04:07:12.387Z,99.99
2019-02-04T04:07:38.695Z,99.99
2019-02-04T04:08:04.817Z,99.99
2019-02-04T04:08:30.920Z,99.99
2019-02-04T04:08:57.049Z,99.99
2019-02-04T04:09:23.143Z,99.99
2019-02-04T04:09:49.279Z,99.99
2019-02-04T04:10:15.620Z,99.99
2019-02-04T04:10:41.777Z,99.99
2019-02-04T04:11:08.092Z,99.99
2019-02-04T04:11:34.194Z,99.99
2019-02-04T04:12:00.292Z,99.99
2019-02-04T04:12:26.647Z,99.99
2019-02-04T04:12:52.756Z,99.99
2019-02-04T04:13:18.877Z,99.99
2019-02-04T04:13:44.979Z,99.99
2019-02-04T04:14:11.111Z,99.99
2019-02-04T04:14:37.692Z,99.99
2019-02-04T04:15:03.794Z,99.99
2019-02-04T04:15:29.952Z,99.99
2019-02-04T04:15:56.461Z,99.99
2019-02-04T04:16:22.570Z,99.99
2019-02-04T04:16:49.253Z,99.99
2019-02-04T04:17:15.350Z,99.99
2019-02-04T04:17:41.451Z,99.99
2019-02-04T04:18:15.289Z,99.99
2019-02-04T04:18:35.910Z,99.99
2019-02-04T04:19:03.254Z,99.99
2019-02-04T04:19:29.361Z,99.99
2019-02-04T04:19:55.456Z,99.99
2019-02-04T04:20:21.893Z,99.99
2019-02-04T04:20:48.004Z,99.99
2019-02-04T04:21:14.106Z,99.99
2019-02-04T04:21:40.697Z,99.99
2019-02-04T04:22:06.804Z,99.99
2019-02-04T04:22:33.356Z,99.99
2019-02-04T04:22:59.460Z,99.99
2019-02-04T04:23:25.559Z,99.99
2019-02-04T04:23:51.857Z,99.99
2019-02-04T04:24:17.957Z,99.99
2019-02-04T04:24:44.055Z,99.99
2019-02-04T04:25:10.184Z,99.99
2019-02-04T04:25:36.314Z,99.99
2019-02-04T04:26:02.777Z,99.99
2019-02-04T04:26:28.883Z,99.99
2019-02-04T04:26:54.981Z,99.99
2019-02-04T04:27:21.427Z,99.99
2019-02-04T04:27:47.527Z,99.99
2019-02-04T04:28:13.660Z,99.99
2019-02-04T04:28:39.756Z,99.99
2019-02-04T04:29:05.893Z,99.99
2019-02-04T04:29:32.465Z,99.99
2019-02-04T04:29:58.576Z,99.99
2019-02-04T04:30:24.669Z,99.99
2019-02-04T04:30:51.257Z,99.99
2019-02-04T04:31:17.367Z,99.99
2019-02-04T04:31:43.826Z,99.99
2019-02-04T04:32:09.933Z,99.99
2019-02-04T04:32:36.028Z,99.99
2019-02-04T04:33:02.607Z,99.99
2019-02-04T04:33:28.739Z,99.99
2019-02-04T04:33:54.877Z,99.99
2019-02-04T04:34:21.221Z,99.99
2019-02-04T04:34:47.322Z,99.99
2019-02-04T04:35:13.477Z,99.99
2019-02-04T04:35:39.592Z,99.99
2019-02-04T04:36:05.704Z,99.99
2019-02-04T04:36:32.074Z,99.99
2019-02-04T04:36:58.172Z,99.99
2019-02-04T04:37:24.604Z,99.99
2019-02-04T04:37:50.744Z,99.99
2019-02-04T04:38:16.927Z,99.99
2019-02-04T04:38:43.284Z,99.99
2019-02-04T04:39:09.410Z,99.99
2019-02-04T04:39:35.518Z,99.99
2019-02-04T04:40:01.877Z,99.99
2019-02-04T04:40:27.979Z,99.99
2019-02-04T04:40:54.275Z,99.99
2019-02-04T04:41:20.408Z,99.99
2019-02-04T04:41:46.515Z,99.99
2019-02-04T04:42:13.122Z,99.99
2019-02-04T04:42:39.246Z,99.99
2019-02-04T04:43:05.349Z,99.99
2019-02-04T04:43:31.630Z,99.99
2019-02-04T04:43:57.737Z,99.99
2019-02-04T04:44:24.077Z,99.99
2019-02-04T04:44:50.209Z,99.99
2019-02-04T04:45:16.337Z,99.99
2019-02-04T04:45:42.700Z,99.99
2019-02-04T04:46:08.800Z,99.99
2019-02-04T04:46:34.926Z,99.99
2019-02-04T04:47:01.032Z,99.99
2019-02-04T04:47:27.139Z,99.99
2019-02-04T04:47:53.484Z,99.99
2019-02-04T04:48:26.208Z,99.99
2019-02-04T04:48:47.698Z,99.99
2019-02-04T04:49:14.956Z,99.99
2019-02-04T04:49:41.056Z,99.99
2019-02-04T04:50:07.719Z,99.99
2019-02-04T04:50:33.848Z,99.99
2019-02-04T04:50:59.972Z,99.99
2019-02-04T04:51:26.295Z,99.99
2019-02-04T04:51:52.402Z,99.99
2019-02-04T04:52:18.748Z,99.99
2019-02-04T04:52:44.857Z,99.99
2019-02-04T04:53:10.954Z,99.99
2019-02-04T04:53:37.288Z,99.99
2019-02-04T04:54:03.427Z,99.99
2019-02-04T04:54:29.526Z,99.99
2019-02-04T04:54:55.853Z,99.99
2019-02-04T04:55:21.957Z,99.99
2019-02-04T04:55:48.410Z,99.99
2019-02-04T04:56:14.514Z,99.99
2019-02-04T04:56:40.618Z,99.99
2019-02-04T04:57:07.179Z,99.99
2019-02-04T04:57:33.309Z,99.99
2019-02-04T04:57:59.673Z,99.99
2019-02-04T04:58:25.920Z,99.99
2019-02-04T04:58:52.028Z,99.99
2019-02-04T04:59:18.498Z,99.99
2019-02-04T04:59:44.596Z,99.99
2019-02-04T05:00:10.894Z,99.99
2019-02-04T05:00:37.439Z,99.99
2019-02-04T05:01:03.604Z,99.99
2019-02-04T05:01:29.760Z,99.99
2019-02-04T05:01:55.866Z,99.99
2019-02-04T05:02:21.966Z,99.99
2019-02-04T05:02:48.390Z,99.99
2019-02-04T05:03:14.443Z,99.99
2019-02-04T05:03:40.551Z,99.99
2019-02-04T05:04:06.933Z,99.99
2019-02-04T05:04:33.039Z,99.99
2019-02-04T05:04:59.219Z,99.99
2019-02-04T05:05:25.319Z,99.99
2019-02-04T05:05:51.425Z,99.99
2019-02-04T05:06:17.952Z,99.99
2019-02-04T05:06:44.050Z,99.99
2019-02-04T05:07:11.431Z,99.99
2019-02-04T05:07:37.538Z,99.99
2019-02-04T05:08:03.690Z,99.99
2019-02-04T05:08:30.109Z,99.99
2019-02-04T05:08:56.242Z,99.99
2019-02-04T05:09:22.345Z,99.99
2019-02-04T05:09:48.909Z,99.99
2019-02-04T05:10:15.044Z,99.99
2019-02-04T05:10:41.366Z,99.99
2019-02-04T05:11:07.466Z,99.99
2019-02-04T05:11:33.573Z,99.99
2019-02-04T05:11:59.968Z,99.99
2019-02-04T05:12:26.067Z,99.99
2019-02-04T05:12:52.176Z,99.99
2019-02-04T05:13:18.558Z,99.99
2019-02-04T05:13:44.756Z,99.99
2019-02-04T05:14:11.151Z,99.99
2019-02-04T05:14:37.248Z,99.99
2019-02-04T05:15:03.356Z,99.99
2019-02-04T05:15:29.762Z,99.99
2019-02-04T05:15:55.866Z,99.99
2019-02-04T05:16:22.254Z,99.99
2019-02-04T05:16:48.368Z,99.99
2019-02-04T05:17:14.471Z,99.99
2019-02-04T05:17:40.778Z,99.99
2019-02-04T05:18:07.867Z,99.99
2019-02-04T05:18:37.946Z,99.99
2019-02-04T05:19:00.131Z,99.99
2019-02-04T05:19:26.254Z,99.99
2019-02-04T05:19:52.648Z,99.99
2019-02-04T05:20:18.747Z,99.99
2019-02-04T05:20:44.847Z,99.99
2019-02-04T05:21:11.948Z,99.99
2019-02-04T05:21:38.081Z,99.99
2019-02-04T05:22:04.481Z,99.99
2019-02-04T05:22:30.581Z,99.99
2019-02-04T05:22:56.691Z,99.99
2019-02-04T05:23:23.080Z,99.99
2019-02-04T05:23:49.177Z,99.99
2019-02-04T05:24:15.324Z,99.99
2019-02-04T05:24:41.772Z,99.99
2019-02-04T05:25:07.867Z,99.99
2019-02-04T05:25:34.310Z,99.99
2019-02-04T05:26:00.414Z,99.99
2019-02-04T05:26:26.539Z,99.99
2019-02-04T05:26:53.639Z,99.99
2019-02-04T05:27:19.747Z,99.99
2019-02-04T05:27:46.117Z,99.99
2019-02-04T05:28:12.224Z,99.99
2019-02-04T05:28:38.330Z,99.99
2019-02-04T05:29:04.600Z,99.99
2019-02-04T05:29:30.736Z,99.99
2019-02-04T05:29:56.832Z,99.99
2019-02-04T05:30:23.491Z,99.99
2019-02-04T05:30:49.626Z,99.99
2019-02-04T05:31:16.091Z,99.99
2019-02-04T05:31:42.188Z,99.99
2019-02-04T05:32:08.299Z,99.99
2019-02-04T05:32:34.820Z,99.99
2019-02-04T05:33:00.937Z,99.99
2019-02-04T05:33:27.039Z,99.99
2019-02-04T05:33:53.309Z,99.99
2019-02-04T05:34:19.411Z,99.99
2019-02-04T05:34:45.740Z,99.99
2019-02-04T05:35:12.830Z,99.99
2019-02-04T05:35:38.966Z,99.99
2019-02-04T05:36:05.356Z,99.99
2019-02-04T05:36:31.464Z,99.99
2019-02-04T05:36:57.825Z,99.99
2019-02-04T05:37:23.928Z,99.99
2019-02-04T05:37:50.068Z,99.99
2019-02-04T05:38:16.465Z,99.99
2019-02-04T05:38:42.571Z,99.99